createdAt,value
2019-02-09T00:00:38.816Z,6.73
2019-02-09T00:03:08.486Z,10.47
2019-02-09T00:05:37.154Z,10.77
2019-02-09T00:08:07.623Z,7.83
2019-02-09T00:10:36.337Z,7.00
2019-02-09T00:13:05.369Z,7.97
2019-02-09T00:15:34.737Z,9.70
2019-02-09T00:18:03.144Z,10.07
2019-02-09T00:20:31.737Z,9.77
2019-02-09T00:23:00.172Z,11.33
2019-02-09T00:25:29.250Z,9.37
2019-02-09T00:27:57.872Z,9.60
2019-02-09T00:30:26.285Z,10.33
2019-02-09T00:32:54.927Z,6.50
2019-02-09T00:35:23.372Z,7.23
2019-02-09T00:37:51.982Z,7.07
2019-02-09T00:40:26.211Z,9.57
2019-02-09T00:42:54.754Z,10.00
2019-02-09T00:45:24.712Z,8.90
2019-02-09T00:47:53.293Z,8.27
2019-02-09T00:50:21.838Z,8.07
2019-02-09T00:52:50.463Z,10.00
2019-02-09T00:55:24.921Z,8.63
2019-02-09T00:57:53.492Z,7.20
2019-02-09T01:00:27.824Z,8.20
2019-02-09T01:02:56.389Z,6.53
2019-02-09T01:05:40.042Z,12.23
2019-02-09T01:08:08.601Z,7.20
2019-02-09T01:10:37.062Z,7.67
2019-02-09T01:13:06.105Z,11.90
2019-02-09T01:15:34.543Z,10.47
2019-02-09T01:18:03.034Z,11.20
2019-02-09T01:20:31.501Z,8.87
2019-02-09T01:23:00.700Z,10.00
2019-02-09T01:25:29.092Z,7.50
2019-02-09T01:27:57.602Z,7.40
2019-02-09T01:30:27.665Z,10.27
2019-02-09T01:32:56.197Z,7.80
2019-02-09T01:35:24.980Z,5.47
2019-02-09T01:37:53.536Z,9.87
2019-02-09T01:40:29.837Z,7.00
2019-02-09T01:42:58.514Z,10.33
2019-02-09T01:45:31.705Z,9.60
2019-02-09T01:48:00.799Z,8.07
2019-02-09T01:50:31.714Z,9.93
2019-02-09T01:53:00.673Z,10.10
2019-02-09T01:55:29.509Z,11.80
2019-02-09T01:57:59.115Z,9.80
2019-02-09T02:00:36.199Z,11.20
2019-02-09T02:03:05.401Z,7.40
2019-02-09T02:05:33.884Z,7.47
2019-02-09T02:08:02.353Z,13.03
2019-02-09T02:10:40.926Z,8.67
2019-02-09T02:13:11.002Z,8.23
2019-02-09T02:15:48.142Z,8.33
2019-02-09T02:18:16.688Z,17.67
2019-02-09T02:20:45.125Z,11.97
2019-02-09T02:23:13.551Z,8.33
2019-02-09T02:25:42.130Z,7.70
2019-02-09T02:28:10.524Z,6.90
2019-02-09T02:30:39.791Z,9.73
2019-02-09T02:33:09.358Z,9.47
2019-02-09T02:35:38.616Z,7.30
2019-02-09T02:38:07.740Z,6.73
2019-02-09T02:40:36.327Z,9.80
2019-02-09T02:43:05.212Z,6.53
2019-02-09T02:45:33.933Z,7.37
2019-02-09T02:48:02.690Z,9.00
2019-02-09T02:50:31.132Z,8.13
2019-02-09T02:52:59.789Z,8.63
2019-02-09T02:55:32.879Z,6.53
2019-02-09T02:58:01.547Z,6.00
2019-02-09T03:00:36.855Z,5.60
2019-02-09T03:03:05.523Z,5.67
2019-02-09T03:05:34.177Z,12.07
2019-02-09T03:08:02.931Z,7.10
2019-02-09T03:10:31.373Z,9.70
2019-02-09T03:12:59.896Z,10.20
2019-02-09T03:15:30.535Z,5.33
2019-02-09T03:17:59.689Z,6.77
2019-02-09T03:20:28.428Z,6.83
2019-02-09T03:22:56.850Z,6.47
2019-02-09T03:25:35.876Z,6.63
2019-02-09T03:28:04.562Z,6.00
2019-02-09T03:30:45.807Z,10.77
2019-02-09T03:33:03.460Z,4.53
2019-02-09T03:35:32.025Z,5.87
2019-02-09T03:38:00.544Z,6.53
2019-02-09T03:40:29.653Z,7.97
2019-02-09T03:42:58.212Z,6.03
2019-02-09T03:45:28.740Z,10.07
2019-02-09T03:47:57.425Z,7.17
2019-02-09T03:50:28.157Z,6.37
2019-02-09T03:52:56.633Z,6.00
2019-02-09T03:55:25.461Z,8.33
2019-02-09T03:57:53.894Z,6.47
2019-02-09T04:00:24.534Z,7.60
2019-02-09T04:02:53.084Z,8.30
2019-02-09T04:05:22.835Z,4.17
2019-02-09T04:07:51.513Z,8.73
2019-02-09T04:10:24.516Z,6.33
2019-02-09T04:12:52.985Z,8.53
2019-02-09T04:15:23.275Z,6.80
2019-02-09T04:17:51.977Z,5.37
2019-02-09T04:20:22.124Z,8.03
2019-02-09T04:22:51.050Z,8.77
2019-02-09T04:25:21.069Z,5.50
2019-02-09T04:27:49.619Z,6.37
2019-02-09T04:30:26.595Z,9.10
2019-02-09T04:32:55.281Z,5.60
2019-02-09T04:35:23.954Z,6.30
2019-02-09T04:37:52.827Z,6.70
2019-02-09T04:40:26.460Z,6.97
2019-02-09T04:42:54.931Z,6.03
2019-02-09T04:45:23.409Z,8.13
2019-02-09T04:47:52.420Z,7.83
2019-02-09T04:50:20.949Z,8.10
2019-02-09T04:52:49.334Z,7.17
2019-02-09T04:55:25.930Z,7.93
2019-02-09T04:57:54.730Z,5.80
2019-02-09T05:00:26.244Z,7.03
2019-02-09T05:02:54.643Z,8.97
2019-02-09T05:05:23.131Z,6.83
2019-02-09T05:07:51.623Z,9.70
2019-02-09T05:10:22.259Z,10.03
2019-02-09T05:12:50.685Z,7.27
2019-02-09T05:15:20.780Z,8.57
2019-02-09T05:17:49.636Z,6.67
2019-02-09T05:20:24.770Z,6.00
2019-02-09T05:22:54.533Z,8.90
2019-02-09T05:25:23.655Z,10.20
2019-02-09T05:27:52.283Z,5.93
2019-02-09T05:30:23.516Z,7.73
2019-02-09T05:32:52.631Z,4.93
2019-02-09T05:35:21.513Z,6.20
2019-02-09T05:37:50.008Z,4.77
2019-02-09T05:40:22.554Z,4.10
2019-02-09T05:42:51.068Z,3.23
2019-02-09T05:45:21.782Z,5.43
2019-02-09T05:47:50.271Z,4.13
2019-02-09T05:50:20.042Z,4.03
2019-02-09T05:52:48.470Z,5.00
2019-02-09T05:55:18.270Z,7.30
2019-02-09T05:57:46.937Z,4.47
2019-02-09T06:00:37.863Z,4.47
2019-02-09T06:03:06.360Z,9.03
2019-02-09T06:05:34.889Z,4.97
2019-02-09T06:08:03.296Z,8.43
2019-02-09T06:10:31.719Z,5.57
2019-02-09T06:13:00.128Z,3.83
2019-02-09T06:15:29.487Z,4.43
2019-02-09T06:17:58.256Z,4.13
2019-02-09T06:20:30.524Z,5.40
2019-02-09T06:22:58.995Z,3.97
2019-02-09T06:25:28.147Z,6.67
2019-02-09T06:27:56.881Z,3.60
2019-02-09T06:30:31.411Z,5.40
2019-02-09T06:33:00.003Z,4.80
2019-02-09T06:35:29.116Z,4.27
2019-02-09T06:37:57.675Z,4.57
2019-02-09T06:40:26.659Z,3.77
2019-02-09T06:42:55.423Z,2.37
2019-02-09T06:45:25.459Z,3.17
2019-02-09T06:47:55.815Z,5.70
2019-02-09T06:50:27.419Z,4.97
2019-02-09T06:52:55.908Z,3.00
2019-02-09T06:55:24.387Z,4.30
2019-02-09T06:57:52.962Z,3.40
2019-02-09T07:00:22.579Z,8.60
2019-02-09T07:02:51.160Z,4.43
2019-02-09T07:05:20.979Z,7.57
2019-02-09T07:07:49.503Z,4.47
2019-02-09T07:10:20.363Z,5.47
2019-02-09T07:12:48.891Z,6.73
2019-02-09T07:15:28.613Z,6.37
2019-02-09T07:17:57.225Z,6.43
2019-02-09T07:20:25.786Z,7.73
2019-02-09T07:22:54.645Z,6.23
2019-02-09T07:25:23.485Z,8.10
2019-02-09T07:27:51.897Z,5.40
2019-02-09T07:30:26.270Z,5.60
2019-02-09T07:32:55.683Z,8.87
2019-02-09T07:35:24.128Z,8.10
2019-02-09T07:37:52.593Z,12.97
2019-02-09T07:40:27.494Z,7.37
2019-02-09T07:42:56.041Z,9.77
2019-02-09T07:45:27.045Z,7.90
2019-02-09T07:47:55.562Z,9.37
2019-02-09T07:50:26.059Z,10.40
2019-02-09T07:52:54.926Z,9.30
2019-02-09T07:55:23.933Z,11.33
2019-02-09T07:57:52.428Z,8.67
2019-02-09T08:00:26.126Z,8.83
2019-02-09T08:02:54.849Z,7.67
2019-02-09T08:05:24.915Z,9.30
2019-02-09T08:07:53.810Z,7.67
2019-02-09T08:10:30.919Z,10.70
2019-02-09T08:13:00.191Z,10.27
2019-02-09T08:15:31.182Z,8.53
2019-02-09T08:18:00.269Z,6.23
2019-02-09T08:20:30.859Z,12.30
2019-02-09T08:23:04.614Z,8.40
2019-02-09T08:25:35.485Z,8.73
2019-02-09T08:28:05.469Z,12.17
2019-02-09T08:30:36.886Z,8.10
2019-02-09T08:33:05.724Z,9.30
2019-02-09T08:35:34.288Z,8.47
2019-02-09T08:38:03.157Z,9.40
2019-02-09T08:40:31.617Z,14.23
2019-02-09T08:43:00.047Z,11.90
2019-02-09T08:45:28.566Z,11.33
2019-02-09T08:47:57.213Z,15.67
2019-02-09T08:50:44.078Z,6.17
2019-02-09T08:53:12.505Z,10.33
2019-02-09T08:55:40.942Z,13.77
2019-02-09T08:58:09.645Z,11.00
2019-02-09T09:00:38.869Z,9.03
2019-02-09T09:03:07.347Z,7.57
2019-02-09T09:05:36.343Z,13.53
2019-02-09T09:08:05.503Z,13.57
2019-02-09T09:10:35.103Z,8.80
2019-02-09T09:13:04.506Z,13.70
2019-02-09T09:15:58.550Z,8.40
2019-02-09T09:18:27.076Z,6.77
2019-02-09T09:21:02.044Z,12.83
2019-02-09T09:23:30.441Z,8.57
2019-02-09T09:25:58.876Z,7.10
2019-02-09T09:28:27.322Z,12.67
2019-02-09T09:30:55.763Z,10.33
2019-02-09T09:33:24.183Z,4.80
2019-02-09T09:35:53.035Z,6.10
2019-02-09T09:38:21.441Z,8.53
2019-02-09T09:40:49.841Z,6.60
2019-02-09T09:43:19.043Z,8.83
2019-02-09T09:45:47.439Z,8.30
2019-02-09T09:48:18.507Z,9.20
2019-02-09T09:50:46.970Z,11.67
2019-02-09T09:53:15.752Z,10.67
2019-02-09T09:55:44.267Z,9.70
2019-02-09T09:58:13.221Z,12.23
2019-02-09T10:00:41.723Z,10.60
2019-02-09T10:03:10.127Z,9.43
2019-02-09T10:05:38.541Z,9.03
2019-02-09T10:08:07.260Z,11.07
2019-02-09T10:10:35.872Z,12.37
2019-02-09T10:13:05.430Z,9.47
2019-02-09T10:15:34.032Z,10.27
2019-02-09T10:18:02.501Z,9.83
2019-02-09T10:20:31.287Z,13.90
2019-02-09T10:22:59.680Z,13.53
2019-02-09T10:25:28.086Z,12.37
2019-02-09T10:27:57.770Z,16.30
2019-02-09T10:30:34.071Z,9.17
2019-02-09T10:33:02.704Z,10.90
2019-02-09T10:35:31.136Z,10.33
2019-02-09T10:38:00.059Z,7.87
2019-02-09T10:40:34.099Z,9.00
2019-02-09T10:43:02.770Z,5.80
2019-02-09T10:45:32.286Z,8.23
2019-02-09T10:48:02.158Z,10.67
2019-02-09T10:50:39.280Z,7.90
2019-02-09T10:53:07.752Z,9.33
2019-02-09T10:55:36.260Z,5.23
2019-02-09T10:58:05.317Z,4.03
2019-02-09T11:00:52.253Z,8.67
2019-02-09T11:03:20.923Z,12.57
2019-02-09T11:05:49.542Z,6.40
2019-02-09T11:08:18.320Z,7.60
2019-02-09T11:10:47.251Z,11.23
2019-02-09T11:13:15.787Z,9.57
2019-02-09T11:15:44.313Z,7.77
2019-02-09T11:18:13.142Z,8.47
2019-02-09T11:20:41.568Z,11.63
2019-02-09T11:23:09.999Z,10.30
2019-02-09T11:25:38.401Z,15.50
2019-02-09T11:28:07.342Z,11.70
2019-02-09T11:30:35.953Z,10.47
2019-02-09T11:33:04.879Z,10.13
2019-02-09T11:35:33.616Z,13.90
2019-02-09T11:38:02.023Z,11.07
2019-02-09T11:40:32.114Z,11.00
2019-02-09T11:43:01.618Z,7.63
2019-02-09T11:45:34.524Z,9.43
2019-02-09T11:48:03.313Z,10.90
2019-02-09T11:50:31.995Z,7.17
2019-02-09T11:53:00.901Z,10.80
2019-02-09T11:55:29.406Z,7.33
2019-02-09T11:57:58.055Z,11.47
2019-02-09T12:00:32.503Z,7.27
2019-02-09T12:03:05.470Z,6.70
2019-02-09T12:05:33.218Z,10.30
2019-02-09T12:08:01.641Z,10.87
2019-02-09T12:10:30.763Z,8.60
2019-02-09T12:12:59.229Z,8.67
2019-02-09T12:15:32.680Z,12.77
2019-02-09T12:18:01.507Z,10.70
2019-02-09T12:20:30.355Z,10.73
2019-02-09T12:22:59.110Z,10.77
2019-02-09T12:25:30.543Z,6.87
2019-02-09T12:27:59.181Z,13.67
2019-02-09T12:30:30.333Z,12.57
2019-02-09T12:32:59.115Z,10.43
2019-02-09T12:35:27.935Z,13.57
2019-02-09T12:37:56.350Z,12.77
2019-02-09T12:40:29.643Z,11.30
2019-02-09T12:42:58.318Z,15.27
2019-02-09T12:45:30.070Z,17.53
2019-02-09T12:47:58.797Z,7.43
2019-02-09T12:50:28.384Z,6.33
2019-02-09T12:52:57.307Z,6.43
2019-02-09T12:55:26.779Z,3.97
2019-02-09T12:57:55.211Z,9.33
2019-02-09T13:00:28.995Z,6.50
2019-02-09T13:02:59.980Z,8.87
2019-02-09T13:05:28.403Z,6.83
2019-02-09T13:07:57.106Z,6.63
2019-02-09T13:10:25.932Z,5.80
2019-02-09T13:12:54.362Z,10.23
2019-02-09T13:15:34.002Z,13.33
2019-02-09T13:18:02.806Z,6.47
2019-02-09T13:20:32.347Z,6.77
2019-02-09T13:23:01.169Z,4.83
2019-02-09T13:25:29.647Z,10.70
2019-02-09T13:27:58.190Z,8.43
2019-02-09T13:30:29.961Z,9.80
2019-02-09T13:32:58.387Z,8.80
2019-02-09T13:35:27.051Z,9.83
2019-02-09T13:37:55.755Z,7.80
2019-02-09T13:40:26.133Z,6.13
2019-02-09T13:42:54.749Z,5.53
2019-02-09T13:45:31.268Z,5.40
2019-02-09T13:47:59.921Z,4.37
2019-02-09T13:50:30.031Z,4.37
2019-02-09T13:52:58.509Z,3.97
2019-02-09T13:55:26.917Z,6.30
2019-02-09T13:57:55.800Z,4.83
2019-02-09T14:00:26.279Z,3.77
2019-02-09T14:02:56.117Z,4.07
2019-02-09T14:05:24.931Z,8.77
2019-02-09T14:07:54.303Z,11.53
2019-02-09T14:10:24.635Z,3.63
2019-02-09T14:12:53.527Z,4.30
2019-02-09T14:15:27.635Z,5.40
2019-02-09T14:17:57.103Z,5.97
2019-02-09T14:20:25.501Z,5.93
2019-02-09T14:22:54.220Z,6.70
2019-02-09T14:25:23.114Z,7.97
2019-02-09T14:27:53.402Z,8.03
2019-02-09T14:30:33.326Z,7.97
2019-02-09T14:33:02.472Z,7.83
2019-02-09T14:35:31.126Z,7.10
2019-02-09T14:37:59.602Z,10.73
2019-02-09T14:40:30.441Z,10.23
2019-02-09T14:42:59.263Z,12.07
2019-02-09T14:45:44.535Z,9.53
2019-02-09T14:48:12.994Z,7.07
2019-02-09T14:50:41.676Z,9.33
2019-02-09T14:53:10.595Z,9.43
2019-02-09T14:55:40.342Z,8.50
2019-02-09T14:58:09.415Z,6.40
2019-02-09T15:00:43.310Z,10.97
2019-02-09T15:03:13.073Z,11.07
2019-02-09T15:05:41.782Z,8.70
2019-02-09T15:08:10.887Z,8.87
2019-02-09T15:10:39.605Z,10.30
2019-02-09T15:13:09.485Z,6.90
2019-02-09T15:15:40.923Z,9.17
2019-02-09T15:18:11.118Z,10.30
2019-02-09T15:20:42.776Z,13.67
2019-02-09T15:23:11.418Z,7.07
2019-02-09T15:25:39.825Z,7.63
2019-02-09T15:28:12.580Z,8.33
2019-02-09T15:30:38.668Z,13.17
2019-02-09T15:33:07.086Z,8.03
2019-02-09T15:35:35.744Z,18.30
2019-02-09T15:38:04.700Z,9.53
2019-02-09T15:40:33.375Z,9.10
2019-02-09T15:43:02.151Z,15.20
2019-02-09T15:45:30.582Z,10.40
2019-02-09T15:47:59.137Z,13.77
2019-02-09T15:50:27.580Z,11.70
2019-02-09T15:52:56.288Z,12.80
2019-02-09T15:55:25.469Z,13.90
2019-02-09T15:57:54.241Z,11.67
2019-02-09T16:00:25.041Z,11.37
2019-02-09T16:02:55.157Z,10.93
2019-02-09T16:05:23.767Z,8.97
2019-02-09T16:07:52.363Z,11.13
2019-02-09T16:10:22.816Z,10.43
2019-02-09T16:12:51.782Z,12.10
2019-02-09T16:15:26.123Z,10.80
2019-02-09T16:17:54.989Z,12.43
2019-02-09T16:20:25.916Z,12.20
2019-02-09T16:22:54.923Z,12.67
2019-02-09T16:25:23.704Z,13.70
2019-02-09T16:27:53.709Z,12.13
2019-02-09T16:30:24.671Z,10.13
2019-02-09T16:32:53.729Z,14.20
2019-02-09T16:35:28.354Z,13.10
2019-02-09T16:37:56.858Z,13.17
2019-02-09T16:40:27.587Z,12.57
2019-02-09T16:42:56.267Z,17.97
2019-02-09T16:45:27.601Z,16.00
2019-02-09T16:47:56.323Z,12.93
2019-02-09T16:50:24.958Z,12.67
2019-02-09T16:52:53.538Z,16.50
2019-02-09T16:55:22.733Z,12.57
2019-02-09T16:57:52.123Z,11.57
2019-02-09T17:00:29.554Z,12.83
2019-02-09T17:02:58.036Z,10.40
2019-02-09T17:05:26.753Z,12.33
2019-02-09T17:07:55.286Z,12.30
2019-02-09T17:10:23.826Z,13.63
2019-02-09T17:12:52.627Z,13.87
2019-02-09T17:15:23.063Z,7.93
2019-02-09T17:17:51.770Z,7.27
2019-02-09T17:20:20.900Z,10.87
2019-02-09T17:22:49.521Z,9.20
2019-02-09T17:25:19.653Z,11.90
2019-02-09T17:27:48.531Z,7.47
2019-02-09T17:30:28.023Z,10.10
2019-02-09T17:32:56.598Z,8.90
2019-02-09T17:35:26.945Z,10.80
2019-02-09T17:37:56.954Z,9.83
2019-02-09T17:40:28.148Z,10.13
2019-02-09T17:42:56.858Z,8.40
2019-02-09T17:45:28.589Z,6.33
2019-02-09T17:47:57.011Z,15.10
2019-02-09T17:50:25.492Z,12.47
2019-02-09T17:52:53.969Z,9.40
2019-02-09T17:55:22.575Z,5.97
2019-02-09T17:57:52.675Z,10.83
2019-02-09T18:00:45.426Z,8.87
2019-02-09T18:03:13.846Z,12.63
2019-02-09T18:05:44.088Z,12.17
2019-02-09T18:08:12.756Z,11.00
2019-02-09T18:10:41.322Z,13.57
2019-02-09T18:13:09.917Z,12.47
2019-02-09T18:15:38.490Z,18.83
2019-02-09T18:18:07.437Z,12.30
2019-02-09T18:20:36.150Z,14.50
2019-02-09T18:23:05.136Z,9.27
2019-02-09T18:25:33.899Z,12.37
2019-02-09T18:28:02.612Z,12.47
2019-02-09T18:30:32.530Z,12.70
2019-02-09T18:33:01.263Z,16.00
2019-02-09T18:35:29.987Z,9.57
2019-02-09T18:37:58.723Z,13.40
2019-02-09T18:40:28.283Z,11.87
2019-02-09T18:42:56.889Z,12.07
2019-02-09T18:45:30.348Z,13.87
2019-02-09T18:47:59.250Z,12.33
2019-02-09T18:50:29.412Z,17.57
2019-02-09T18:52:59.155Z,14.93
2019-02-09T18:55:28.766Z,10.40
2019-02-09T18:57:57.433Z,13.73
2019-02-09T19:00:34.595Z,15.93
2019-02-09T19:03:04.073Z,19.57
2019-02-09T19:05:32.880Z,15.27
2019-02-09T19:08:01.525Z,9.93
2019-02-09T19:10:31.064Z,22.33
2019-02-09T19:12:59.519Z,14.53
2019-02-09T19:15:28.874Z,10.23
2019-02-09T19:17:58.791Z,15.53
2019-02-09T19:20:42.223Z,12.93
2019-02-09T19:23:11.350Z,13.67
2019-02-09T19:25:40.167Z,17.07
2019-02-09T19:28:09.111Z,18.03
2019-02-09T19:30:37.697Z,13.67
2019-02-09T19:33:07.287Z,12.13
2019-02-09T19:35:35.789Z,15.13
2019-02-09T19:38:04.874Z,11.73
2019-02-09T19:40:33.385Z,16.00
2019-02-09T19:43:02.265Z,10.37
2019-02-09T19:45:35.467Z,11.83
2019-02-09T19:48:04.981Z,14.73
2019-02-09T19:50:33.573Z,17.70
2019-02-09T19:53:02.360Z,13.37
2019-02-09T19:55:32.315Z,19.30
2019-02-09T19:58:01.329Z,16.23
2019-02-09T20:00:38.840Z,12.90
2019-02-09T20:03:08.590Z,20.73
2019-02-09T20:05:37.282Z,26.60
2019-02-09T20:08:08.039Z,21.30
2019-02-09T20:10:38.754Z,16.30
2019-02-09T20:13:13.173Z,13.67
2019-02-09T20:15:42.087Z,15.77
2019-02-09T20:18:11.533Z,16.97
2019-02-09T20:20:46.922Z,16.57
2019-02-09T20:23:11.243Z,16.40
2019-02-09T20:25:39.882Z,14.57
2019-02-09T20:28:08.641Z,14.50
2019-02-09T20:30:41.723Z,17.53
2019-02-09T20:33:10.620Z,16.40
2019-02-09T20:35:39.564Z,13.50
2019-02-09T20:38:09.389Z,14.47
2019-02-09T20:41:02.791Z,13.53
2019-02-09T20:43:31.836Z,15.33
2019-02-09T20:46:00.480Z,17.50
2019-02-09T20:48:29.337Z,15.40
2019-02-09T20:50:57.882Z,11.97
2019-02-09T20:53:26.644Z,12.00
2019-02-09T20:55:55.239Z,20.47
2019-02-09T20:58:24.002Z,12.43
2019-02-09T21:00:52.452Z,12.27
2019-02-09T21:03:21.347Z,15.07
2019-02-09T21:05:50.694Z,13.10
2019-02-09T21:08:19.627Z,12.50
2019-02-09T21:10:48.151Z,15.60
2019-02-09T21:13:17.026Z,13.33
2019-02-09T21:15:45.516Z,16.53
2019-02-09T21:18:14.375Z,13.23
2019-02-09T21:20:42.909Z,13.20
2019-02-09T21:23:11.433Z,14.77
2019-02-09T21:25:42.595Z,17.67
2019-02-09T21:28:11.222Z,14.17
2019-02-09T21:30:40.109Z,14.53
2019-02-09T21:33:08.679Z,14.77
2019-02-09T21:35:43.650Z,15.63
2019-02-09T21:38:08.379Z,16.37
2019-02-09T21:40:36.834Z,18.13
2019-02-09T21:43:06.488Z,13.87
2019-02-09T21:45:36.430Z,17.87
2019-02-09T21:48:05.581Z,17.70
2019-02-09T21:50:40.114Z,12.07
2019-02-09T21:53:09.277Z,16.97
2019-02-09T21:55:37.855Z,16.67
2019-02-09T21:58:08.388Z,15.70
2019-02-09T22:00:42.659Z,18.33
2019-02-09T22:03:11.860Z,16.57
2019-02-09T22:05:40.487Z,15.27
2019-02-09T22:08:19.699Z,17.30
2019-02-09T22:10:45.036Z,19.00
2019-02-09T22:13:13.866Z,14.90
2019-02-09T22:15:42.443Z,16.87
2019-02-09T22:18:10.893Z,14.80
2019-02-09T22:20:39.313Z,14.40
2019-02-09T22:23:07.971Z,13.27
2019-02-09T22:25:36.505Z,20.70
2019-02-09T22:28:06.020Z,14.87
2019-02-09T22:30:34.586Z,15.63
2019-02-09T22:33:03.504Z,16.57
2019-02-09T22:35:31.969Z,13.97
2019-02-09T22:38:00.543Z,17.00
2019-02-09T22:40:31.639Z,14.50
2019-02-09T22:43:00.143Z,13.20
2019-02-09T22:45:29.487Z,17.17
2019-02-09T22:47:57.972Z,11.90
2019-02-09T22:50:38.264Z,19.90
2019-02-09T22:53:06.824Z,15.57
2019-02-09T22:55:35.579Z,13.13
2019-02-09T22:58:07.166Z,15.87
2019-02-09T23:00:55.335Z,19.27
2019-02-09T23:03:33.309Z,18.27
2019-02-09T23:06:29.191Z,14.93
2019-02-09T23:08:58.290Z,17.53
2019-02-09T23:11:26.732Z,17.07
2019-02-09T23:13:55.525Z,17.20
2019-02-09T23:16:23.926Z,13.63
2019-02-09T23:18:52.691Z,14.53
2019-02-09T23:21:21.093Z,17.70
2019-02-09T23:23:49.514Z,13.20
2019-02-09T23:26:17.970Z,20.13
2019-02-09T23:28:46.713Z,15.00
2019-02-09T23:31:15.118Z,18.57
2019-02-09T23:33:43.572Z,14.03
2019-02-09T23:36:16.434Z,13.40
2019-02-09T23:38:42.141Z,15.13
2019-02-09T23:41:10.540Z,11.73
2019-02-09T23:43:39.010Z,15.43
2019-02-09T23:46:07.419Z,19.97
2019-02-09T23:48:35.818Z,19.37
2019-02-09T23:51:04.266Z,14.57
2019-02-09T23:53:32.657Z,17.00
2019-02-09T23:56:01.289Z,15.87
2019-02-09T23:58:29.746Z,15.97
